createdAt,value
2022-09-06T00:00:30.162Z,75.06
2022-09-06T00:02:58.636Z,75.26
2022-09-06T00:05:28.405Z,75.46
2022-09-06T00:08:00.163Z,75.62
2022-09-06T00:10:29.727Z,75.86
2022-09-06T00:13:05.166Z,76.06
2022-09-06T00:15:34.487Z,76.08
2022-09-06T00:18:06.354Z,76.27
2022-09-06T00:20:35.386Z,76.38
2022-09-06T00:23:06.044Z,76.49
2022-09-06T00:25:35.290Z,76.76
2022-09-06T00:28:06.038Z,76.80
2022-09-06T00:30:35.243Z,76.84
2022-09-06T00:33:04.008Z,76.82
2022-09-06T00:35:32.391Z,76.99
2022-09-06T00:38:01.990Z,77.13
2022-09-06T00:40:34.119Z,77.14
2022-09-06T00:43:02.227Z,77.16
2022-09-06T00:45:31.843Z,77.16
2022-09-06T00:48:01.953Z,77.28
2022-09-06T00:50:30.335Z,77.35
2022-09-06T00:52:58.506Z,77.45
2022-09-06T00:55:26.628Z,77.70
2022-09-06T00:57:55.901Z,77.89
2022-09-06T01:00:24.354Z,78.06
2022-09-06T01:02:53.905Z,78.16
2022-09-06T01:05:29.203Z,78.19
2022-09-06T01:08:14.621Z,79.00
2022-09-06T01:11:04.254Z,79.32
2022-09-06T01:13:41.446Z,79.30
2022-09-06T01:16:18.455Z,79.21
2022-09-06T01:19:05.580Z,79.24
2022-09-06T01:21:51.010Z,79.41
2022-09-06T01:24:37.411Z,79.28
2022-09-06T01:27:11.255Z,79.49
2022-09-06T01:29:45.175Z,79.44
2022-09-06T01:32:50.776Z,79.45
2022-09-06T01:35:30.425Z,79.60
2022-09-06T01:38:00.843Z,79.52
2022-09-06T01:40:29.426Z,79.49
2022-09-06T01:42:58.546Z,79.53
2022-09-06T01:45:56.821Z,79.54
2022-09-06T01:48:37.810Z,79.69
2022-09-06T01:51:33.507Z,79.66
2022-09-06T01:54:09.098Z,79.76
2022-09-06T01:56:55.713Z,79.73
2022-09-06T01:59:51.562Z,79.92
2022-09-06T02:02:25.307Z,79.99
2022-09-06T02:05:01.519Z,79.82
2022-09-06T02:07:32.902Z,79.75
2022-09-06T02:10:08.932Z,79.85
2022-09-06T02:12:41.336Z,79.78
2022-09-06T02:15:20.127Z,79.64
2022-09-06T02:17:53.929Z,79.44
2022-09-06T02:20:26.939Z,79.33
2022-09-06T02:22:57.957Z,79.39
2022-09-06T02:25:32.374Z,79.43
2022-09-06T02:28:00.803Z,79.40
2022-09-06T02:30:29.557Z,79.37
2022-09-06T02:33:08.366Z,79.35
2022-09-06T02:35:44.996Z,79.25
2022-09-06T02:38:13.924Z,79.46
2022-09-06T02:40:44.289Z,79.42
2022-09-06T02:43:12.420Z,79.38
2022-09-06T02:45:40.514Z,79.39
2022-09-06T02:48:09.071Z,79.44
2022-09-06T02:50:37.453Z,79.49
2022-09-06T02:53:11.974Z,79.48
2022-09-06T02:55:41.083Z,79.49
2022-09-06T02:58:11.440Z,79.62
2022-09-06T03:00:39.975Z,79.57
2022-09-06T03:03:08.660Z,79.59
2022-09-06T03:05:36.785Z,79.64
2022-09-06T03:08:05.272Z,79.66
2022-09-06T03:10:33.597Z,79.66
2022-09-06T03:13:01.762Z,79.81
2022-09-06T03:15:29.830Z,79.79
2022-09-06T03:17:59.709Z,79.91
2022-09-06T03:20:27.750Z,80.06
2022-09-06T03:22:56.601Z,80.18
2022-09-06T03:25:25.899Z,80.31
2022-09-06T03:27:56.428Z,80.45
2022-09-06T03:30:24.657Z,80.67
2022-09-06T03:32:52.712Z,80.79
2022-09-06T03:35:20.745Z,80.83
2022-09-06T03:37:48.917Z,81.12
2022-09-06T03:40:17.545Z,81.51
2022-09-06T03:42:46.702Z,81.37
2022-09-06T03:45:15.120Z,81.32
2022-09-06T03:47:43.144Z,81.23
2022-09-06T03:50:11.522Z,81.16
2022-09-06T03:52:40.851Z,81.29
2022-09-06T03:55:09.653Z,81.45
2022-09-06T03:57:38.044Z,81.48
2022-09-06T04:00:06.756Z,81.56
2022-09-06T04:02:39.569Z,81.53
2022-09-06T04:05:08.090Z,81.39
2022-09-06T04:07:38.359Z,81.52
2022-09-06T04:10:07.315Z,81.53
2022-09-06T04:12:35.422Z,81.51
2022-09-06T04:15:03.971Z,81.49
2022-09-06T04:17:31.968Z,81.40
2022-09-06T04:20:00.043Z,81.43
2022-09-06T04:22:28.219Z,81.25
2022-09-06T04:24:56.495Z,81.32
2022-09-06T04:27:24.661Z,81.37
2022-09-06T04:29:52.735Z,81.37
2022-09-06T04:32:20.807Z,81.50
2022-09-06T04:34:48.984Z,81.50
2022-09-06T04:37:20.222Z,81.62
2022-09-06T04:39:48.338Z,81.51
2022-09-06T04:42:16.361Z,81.33
2022-09-06T04:44:44.438Z,81.14
2022-09-06T04:47:15.512Z,81.14
2022-09-06T04:49:44.469Z,80.99
2022-09-06T04:52:12.931Z,80.85
2022-09-06T04:54:41.017Z,80.84
2022-09-06T04:57:09.600Z,80.74
2022-09-06T04:59:37.780Z,80.65
2022-09-06T05:02:05.981Z,80.56
2022-09-06T05:04:34.217Z,81.59
2022-09-06T05:07:05.379Z,79.93
2022-09-06T05:09:34.653Z,75.47
2022-09-06T05:12:03.526Z,70.84
2022-09-06T05:14:31.566Z,67.55
2022-09-06T05:16:59.574Z,65.95
2022-09-06T05:19:27.665Z,65.50
2022-09-06T05:21:55.934Z,65.81
2022-09-06T05:24:24.047Z,64.26
2022-09-06T05:26:52.483Z,62.81
2022-09-06T05:29:20.761Z,63.24
2022-09-06T05:31:48.926Z,62.22
2022-09-06T05:34:17.518Z,62.26
2022-09-06T05:36:46.408Z,61.43
2022-09-06T05:39:14.705Z,60.02
2022-09-06T05:41:43.265Z,58.07
2022-09-06T05:44:11.537Z,55.80
2022-09-06T05:46:46.444Z,55.11
2022-09-06T05:49:14.539Z,53.88
2022-09-06T05:51:42.750Z,53.85
2022-09-06T05:54:12.120Z,53.74
2022-09-06T05:56:40.135Z,54.53
2022-09-06T05:59:08.362Z,54.95
2022-09-06T06:01:36.579Z,55.96
2022-09-06T06:04:05.759Z,55.95
2022-09-06T06:06:34.776Z,55.91
2022-09-06T06:09:02.897Z,56.69
2022-09-06T06:11:31.597Z,57.75
2022-09-06T06:13:59.752Z,57.17
2022-09-06T06:16:27.967Z,57.15
2022-09-06T06:18:56.501Z,57.78
2022-09-06T06:21:27.596Z,57.80
2022-09-06T06:23:58.407Z,57.80
2022-09-06T06:26:28.502Z,57.82
2022-09-06T06:28:58.107Z,56.93
2022-09-06T06:31:26.312Z,56.39
2022-09-06T06:33:54.555Z,56.97
2022-09-06T06:36:25.233Z,57.53
2022-09-06T06:38:55.529Z,58.09
2022-09-06T06:41:27.023Z,58.93
2022-09-06T06:44:04.045Z,59.41
2022-09-06T06:46:37.491Z,59.46
2022-09-06T06:49:05.719Z,59.16
2022-09-06T06:51:38.318Z,58.10
2022-09-06T06:54:06.675Z,57.59
2022-09-06T06:56:37.421Z,57.99
2022-09-06T06:59:07.986Z,58.08
2022-09-06T07:01:36.686Z,57.75
2022-09-06T07:04:05.724Z,57.68
2022-09-06T07:12:25.459Z,56.08
2022-09-06T07:14:53.900Z,56.23
2022-09-06T07:17:22.169Z,55.40
2022-09-06T07:22:39.377Z,54.05
2022-09-06T07:25:09.491Z,54.61
2022-09-06T07:27:52.862Z,54.13
2022-09-06T07:30:21.436Z,53.87
2022-09-06T07:32:49.509Z,52.99
2022-09-06T07:35:17.683Z,52.23
2022-09-06T07:37:56.410Z,52.61
2022-09-06T07:40:27.032Z,52.40
2022-09-06T07:42:59.658Z,52.46
2022-09-06T07:45:27.790Z,51.41
2022-09-06T07:47:59.853Z,51.95
2022-09-06T07:50:47.736Z,52.04
2022-09-06T07:53:24.542Z,50.95
2022-09-06T07:56:00.836Z,49.05
2022-09-06T07:58:30.336Z,49.29
2022-09-06T08:01:25.722Z,49.74
2022-09-06T08:03:54.211Z,49.70
2022-09-06T08:06:23.747Z,49.62
2022-09-06T08:08:59.797Z,49.53
2022-09-06T08:11:31.131Z,49.09
2022-09-06T08:14:00.877Z,49.09
2022-09-06T08:16:30.694Z,48.27
2022-09-06T08:19:01.097Z,48.11
2022-09-06T08:21:32.464Z,47.69
2022-09-06T08:24:05.196Z,47.51
2022-09-06T08:26:36.441Z,47.21
2022-09-06T08:29:06.994Z,46.15
2022-09-06T08:31:38.188Z,46.76
2022-09-06T08:34:06.706Z,47.10
2022-09-06T08:36:35.798Z,46.23
2022-09-06T08:39:06.670Z,46.01
2022-09-06T08:41:46.678Z,45.86
2022-09-06T08:47:16.201Z,42.55
2022-09-06T08:49:53.178Z,43.40
2022-09-06T08:52:26.897Z,42.15
2022-09-06T08:55:07.352Z,41.95
2022-09-06T08:57:54.378Z,41.68
2022-09-06T09:00:23.268Z,41.55
2022-09-06T09:03:06.983Z,41.71
2022-09-06T09:05:37.621Z,41.13
2022-09-06T09:08:27.846Z,40.85
2022-09-06T09:11:03.755Z,40.94
2022-09-06T09:13:41.044Z,41.63
2022-09-06T09:16:10.272Z,41.86
2022-09-06T09:18:42.522Z,41.70
2022-09-06T09:21:11.297Z,41.67
2022-09-06T09:23:39.673Z,41.94
2022-09-06T09:26:15.161Z,41.97
2022-09-06T09:29:06.157Z,42.56
2022-09-06T09:31:40.804Z,42.13
2022-09-06T09:34:29.597Z,42.88
2022-09-06T09:40:26.923Z,43.23
2022-09-06T09:43:09.362Z,41.38
2022-09-06T09:45:37.510Z,41.35
2022-09-06T09:48:27.247Z,40.40
2022-09-06T09:50:56.390Z,39.90
2022-09-06T09:53:24.917Z,39.59
2022-09-06T09:55:59.739Z,37.59
2022-09-06T09:58:30.365Z,37.20
2022-09-06T10:01:30.341Z,37.57
2022-09-06T10:09:39.730Z,35.28
2022-09-06T10:12:08.189Z,34.36
2022-09-06T10:14:45.720Z,35.86
2022-09-06T10:17:22.129Z,35.78
2022-09-06T10:19:50.482Z,35.85
2022-09-06T10:22:32.904Z,36.15
2022-09-06T10:25:19.595Z,37.72
2022-09-06T10:28:17.770Z,38.01
2022-09-06T10:31:12.299Z,38.11
2022-09-06T10:33:52.789Z,38.39
2022-09-06T10:36:30.029Z,39.45
2022-09-06T10:39:09.552Z,39.31
2022-09-06T10:42:12.185Z,38.47
2022-09-06T10:45:03.645Z,37.78
2022-09-06T10:47:48.722Z,38.25
2022-09-06T10:50:17.244Z,37.47
2022-09-06T10:52:49.170Z,37.94
2022-09-06T10:55:19.004Z,38.08
2022-09-06T11:00:47.475Z,37.93
2022-09-06T11:06:20.023Z,37.26
2022-09-06T11:08:53.566Z,37.73
2022-09-06T11:11:35.948Z,37.43
2022-09-06T11:14:12.450Z,37.25
2022-09-06T11:16:57.826Z,38.37
2022-09-06T11:19:33.263Z,37.23
2022-09-06T11:22:38.836Z,37.89
2022-09-06T11:25:15.655Z,37.91
2022-09-06T11:27:47.918Z,37.88
2022-09-06T11:30:18.109Z,37.62
2022-09-06T11:32:50.322Z,38.53
2022-09-06T11:35:28.952Z,38.63
2022-09-06T11:38:17.176Z,38.62
2022-09-06T11:41:07.210Z,38.39
2022-09-06T11:43:45.168Z,38.68
2022-09-06T11:46:35.118Z,38.81
2022-09-06T11:49:07.604Z,38.56
2022-09-06T11:51:45.786Z,38.71
2022-09-06T11:54:21.890Z,38.72
2022-09-06T11:57:09.658Z,38.23
2022-09-06T11:59:51.633Z,38.15
2022-09-06T12:02:36.880Z,38.08
2022-09-06T12:05:07.657Z,38.17
2022-09-06T12:08:07.809Z,38.21
2022-09-06T12:10:42.200Z,38.50
2022-09-06T12:13:47.612Z,38.25
2022-09-06T12:16:18.516Z,38.45
2022-09-06T12:18:49.816Z,38.15
2022-09-06T12:21:36.012Z,38.41
2022-09-06T12:24:06.536Z,38.64
2022-09-06T12:26:54.448Z,38.64
2022-09-06T12:29:26.823Z,38.74
2022-09-06T12:31:58.039Z,38.39
2022-09-06T12:34:31.686Z,38.25
2022-09-06T12:37:04.886Z,37.97
2022-09-06T12:39:34.519Z,38.17
2022-09-06T12:42:05.608Z,38.17
2022-09-06T12:44:44.159Z,38.47
2022-09-06T12:47:25.937Z,37.66
2022-09-06T12:50:18.859Z,38.08
2022-09-06T12:53:01.883Z,38.22
2022-09-06T12:55:36.454Z,38.34
2022-09-06T12:58:07.337Z,38.70
2022-09-06T13:00:41.222Z,38.56
2022-09-06T13:03:50.814Z,38.98
2022-09-06T13:06:27.026Z,39.62
2022-09-06T13:08:58.120Z,39.22
2022-09-06T13:11:31.651Z,39.39
2022-09-06T13:14:00.813Z,40.06
2022-09-06T13:16:37.148Z,40.22
2022-09-06T13:19:16.582Z,40.11
2022-09-06T13:21:46.460Z,39.48
2022-09-06T13:24:19.956Z,40.03
2022-09-06T13:26:48.052Z,40.00
2022-09-06T13:29:20.082Z,39.96
2022-09-06T13:31:57.058Z,39.53
2022-09-06T13:34:33.109Z,39.85
2022-09-06T13:37:05.624Z,39.48
2022-09-06T13:39:42.219Z,39.66
2022-09-06T13:42:24.925Z,39.39
2022-09-06T13:44:53.131Z,38.93
2022-09-06T13:47:21.308Z,39.27
2022-09-06T13:49:52.094Z,39.38
2022-09-06T13:52:20.315Z,39.83
2022-09-06T13:54:48.958Z,39.33
2022-09-06T13:57:21.062Z,39.21
2022-09-06T13:59:52.321Z,39.54
2022-09-06T14:02:21.166Z,39.11
2022-09-06T14:04:49.883Z,39.06
2022-09-06T14:07:18.065Z,39.11
2022-09-06T14:09:47.585Z,38.74
2022-09-06T14:12:15.792Z,39.00
2022-09-06T14:14:44.842Z,39.37
2022-09-06T14:17:13.563Z,39.31
2022-09-06T14:19:41.626Z,39.16
2022-09-06T14:22:09.854Z,38.72
2022-09-06T14:24:38.232Z,38.75
2022-09-06T14:27:07.531Z,38.66
2022-09-06T14:29:36.366Z,38.62
2022-09-06T14:32:04.597Z,38.88
2022-09-06T14:34:32.972Z,38.81
2022-09-06T14:37:01.144Z,38.77
2022-09-06T14:39:29.573Z,38.42
2022-09-06T14:41:59.698Z,38.65
2022-09-06T14:44:27.812Z,38.72
2022-09-06T14:46:55.988Z,38.33
2022-09-06T14:49:25.080Z,38.76
2022-09-06T14:51:53.873Z,39.06
2022-09-06T14:54:24.130Z,39.12
2022-09-06T14:56:55.545Z,39.07
2022-09-06T14:59:23.623Z,39.01
2022-09-06T15:01:51.802Z,38.84
2022-09-06T15:04:19.891Z,38.75
2022-09-06T15:06:48.497Z,38.35
2022-09-06T15:09:18.110Z,38.84
2022-09-06T15:11:49.491Z,38.63
2022-09-06T15:14:20.530Z,38.59
2022-09-06T15:16:54.900Z,38.51
2022-09-06T15:19:25.834Z,38.86
2022-09-06T15:21:55.601Z,38.99
2022-09-06T15:24:23.979Z,38.87
2022-09-06T15:26:52.684Z,38.92
2022-09-06T15:29:21.137Z,39.00
2022-09-06T15:31:50.801Z,39.16
2022-09-06T15:34:24.725Z,39.00
2022-09-06T15:36:53.885Z,39.11
2022-09-06T15:39:21.980Z,39.24
2022-09-06T15:41:51.848Z,39.19
2022-09-06T15:44:21.734Z,38.83
2022-09-06T15:46:51.150Z,39.14
2022-09-06T15:49:27.553Z,39.14
2022-09-06T15:51:58.374Z,39.30
2022-09-06T15:54:46.288Z,39.42
2022-09-06T15:57:16.715Z,39.54
2022-09-06T15:59:45.574Z,39.72
2022-09-06T16:02:14.396Z,41.27
2022-09-06T16:04:42.769Z,43.37
2022-09-06T16:07:13.855Z,44.78
2022-09-06T16:09:42.903Z,46.33
2022-09-06T16:12:12.097Z,47.32
2022-09-06T16:14:40.372Z,48.94
2022-09-06T16:17:08.639Z,49.64
2022-09-06T16:19:37.029Z,49.31
2022-09-06T16:22:05.205Z,50.81
2022-09-06T16:24:33.680Z,50.95
2022-09-06T16:27:02.889Z,51.39
2022-09-06T16:29:32.289Z,51.90
2022-09-06T16:32:00.860Z,52.27
2022-09-06T16:34:29.193Z,53.32
2022-09-06T16:36:57.467Z,53.50
2022-09-06T16:39:25.614Z,53.62
2022-09-06T16:41:53.866Z,54.28
2022-09-06T16:44:22.138Z,55.07
2022-09-06T16:46:50.906Z,55.21
2022-09-06T16:49:19.900Z,55.65
2022-09-06T16:51:49.803Z,56.02
2022-09-06T16:54:19.016Z,55.91
2022-09-06T16:56:47.777Z,56.69
2022-09-06T16:59:17.578Z,57.01
2022-09-06T17:01:46.436Z,57.36
2022-09-06T17:04:15.145Z,57.24
2022-09-06T17:06:47.175Z,57.88
2022-09-06T17:09:19.369Z,57.63
2022-09-06T17:11:51.494Z,58.38
2022-09-06T17:14:19.767Z,58.22
2022-09-06T17:17:06.420Z,58.62
2022-09-06T17:19:37.009Z,58.94
2022-09-06T17:22:05.482Z,59.08
2022-09-06T17:24:34.187Z,59.30
2022-09-06T17:27:02.339Z,59.18
2022-09-06T17:29:31.541Z,59.64
2022-09-06T17:32:00.223Z,59.78
2022-09-06T17:34:29.016Z,59.75
2022-09-06T17:36:57.182Z,59.92
2022-09-06T17:39:25.303Z,60.35
2022-09-06T17:41:54.546Z,60.65
2022-09-06T17:44:25.579Z,60.69
2022-09-06T17:49:43.683Z,61.44
2022-09-06T17:52:12.550Z,61.27
2022-09-06T17:54:40.813Z,61.53
2022-09-06T17:57:09.095Z,61.59
2022-09-06T17:59:38.429Z,61.69
2022-09-06T18:02:06.664Z,62.17
2022-09-06T18:04:35.329Z,62.20
2022-09-06T18:07:03.725Z,62.52
2022-09-06T18:09:32.104Z,62.54
2022-09-06T18:12:00.272Z,62.64
2022-09-06T18:14:28.934Z,63.05
2022-09-06T18:16:57.420Z,63.29
2022-09-06T18:19:27.146Z,63.26
2022-09-06T18:21:57.530Z,63.09
2022-09-06T18:24:26.235Z,63.77
2022-09-06T18:26:54.634Z,63.68
2022-09-06T18:29:23.015Z,64.00
2022-09-06T18:31:54.294Z,64.08
2022-09-06T18:34:22.638Z,64.31
2022-09-06T18:36:50.863Z,64.28
2022-09-06T18:39:20.664Z,64.68
2022-09-06T18:42:01.221Z,64.51
2022-09-06T18:44:34.682Z,64.66
2022-09-06T18:47:05.777Z,64.02
2022-09-06T18:49:34.914Z,63.77
2022-09-06T18:52:05.651Z,63.56
2022-09-06T18:54:33.771Z,63.18
2022-09-06T18:57:01.897Z,63.00
2022-09-06T18:59:30.070Z,62.69
2022-09-06T19:01:58.574Z,62.65
2022-09-06T19:04:27.042Z,62.52
2022-09-06T19:06:55.202Z,62.52
2022-09-06T19:09:23.581Z,62.53
2022-09-06T19:11:53.495Z,62.70
2022-09-06T19:14:22.181Z,62.56
2022-09-06T19:16:51.958Z,62.60
2022-09-06T19:19:21.902Z,62.54
2022-09-06T19:21:50.205Z,62.57
2022-09-06T19:24:18.554Z,62.54
2022-09-06T19:26:47.264Z,62.67
2022-09-06T19:29:17.867Z,62.48
2022-09-06T19:31:47.505Z,62.62
2022-09-06T19:34:16.471Z,62.66
2022-09-06T19:36:45.153Z,62.53
2022-09-06T19:39:16.000Z,62.41
2022-09-06T19:41:47.029Z,62.44
2022-09-06T19:44:17.133Z,62.24
2022-09-06T19:46:47.142Z,62.06
2022-09-06T19:49:17.328Z,62.09
2022-09-06T19:51:46.827Z,61.68
2022-09-06T19:54:15.929Z,61.34
2022-09-06T19:56:44.890Z,61.12
2022-09-06T19:59:14.828Z,60.92
2022-09-06T20:01:44.876Z,60.61
2022-09-06T20:04:14.635Z,60.31
2022-09-06T20:06:42.996Z,60.02
2022-09-06T20:09:11.778Z,59.92
2022-09-06T20:11:41.729Z,59.97
2022-09-06T20:14:11.766Z,59.87
2022-09-06T20:16:42.159Z,59.91
2022-09-06T20:19:12.753Z,59.69
2022-09-06T20:21:41.060Z,59.40
2022-09-06T20:24:09.314Z,59.05
2022-09-06T20:26:38.105Z,58.82
2022-09-06T20:29:06.940Z,58.59
2022-09-06T20:31:36.919Z,58.52
2022-09-06T20:34:06.770Z,58.11
2022-09-06T20:36:35.100Z,58.15
2022-09-06T20:39:04.316Z,58.34
2022-09-06T20:41:32.567Z,58.43
2022-09-06T20:44:01.151Z,58.27
2022-09-06T20:46:31.690Z,58.58
2022-09-06T20:49:03.989Z,58.69
2022-09-06T20:51:35.137Z,59.13
2022-09-06T20:54:05.330Z,59.24
2022-09-06T20:56:36.791Z,59.26
2022-09-06T20:59:08.736Z,59.42
2022-09-06T21:01:46.016Z,59.93
2022-09-06T21:04:16.709Z,59.79
2022-09-06T21:06:46.886Z,60.77
2022-09-06T21:09:15.731Z,61.17
2022-09-06T21:11:45.479Z,61.53
2022-09-06T21:14:14.047Z,61.61
2022-09-06T21:16:42.287Z,61.61
2022-09-06T21:19:11.662Z,61.69
2022-09-06T21:21:41.136Z,62.23
2022-09-06T21:24:11.099Z,62.39
2022-09-06T21:26:39.310Z,62.71
2022-09-06T21:29:07.483Z,62.75
2022-09-06T21:31:37.491Z,62.96
2022-09-06T21:34:16.166Z,63.34
2022-09-06T21:36:45.637Z,63.93
2022-09-06T21:39:14.913Z,63.75
2022-09-06T21:41:43.861Z,63.98
2022-09-06T21:44:13.319Z,64.47
2022-09-06T21:46:42.151Z,64.86
2022-09-06T21:49:13.150Z,65.09
2022-09-06T21:51:42.404Z,65.04
2022-09-06T21:54:10.926Z,65.39
2022-09-06T21:56:40.515Z,65.20
2022-09-06T21:59:09.928Z,65.64
2022-09-06T22:01:40.081Z,65.42
2022-09-06T22:04:08.958Z,65.44
2022-09-06T22:06:38.056Z,65.61
2022-09-06T22:09:12.044Z,65.91
2022-09-06T22:11:43.740Z,66.30
2022-09-06T22:14:13.917Z,66.21
2022-09-06T22:16:42.193Z,65.99
2022-09-06T22:19:11.338Z,66.28
2022-09-06T22:21:39.916Z,66.48
2022-09-06T22:24:10.410Z,66.58
2022-09-06T22:26:40.531Z,66.92
2022-09-06T22:29:11.050Z,67.40
2022-09-06T22:31:39.856Z,67.55
2022-09-06T22:34:08.108Z,67.79
2022-09-06T22:36:36.143Z,68.15
2022-09-06T22:39:04.654Z,68.17
2022-09-06T22:41:34.264Z,68.13
2022-09-06T22:44:03.405Z,68.23
2022-09-06T22:46:32.230Z,68.23
2022-09-06T22:49:00.947Z,68.61
2022-09-06T22:51:29.002Z,68.35
2022-09-06T22:53:57.172Z,68.25
2022-09-06T22:56:25.282Z,68.43
2022-09-06T22:58:53.422Z,68.30
2022-09-06T23:01:21.977Z,68.40
2022-09-06T23:03:50.941Z,68.03
2022-09-06T23:06:19.167Z,68.31
2022-09-06T23:08:47.343Z,68.16
2022-09-06T23:11:17.988Z,68.25
2022-09-06T23:13:47.247Z,67.90
2022-09-06T23:16:19.042Z,67.95
2022-09-06T23:18:47.867Z,67.86
2022-09-06T23:21:22.030Z,68.17
2022-09-06T23:23:51.886Z,68.06
2022-09-06T23:26:23.366Z,67.96
2022-09-06T23:28:56.698Z,67.74
2022-09-06T23:31:27.577Z,67.83
2022-09-06T23:33:57.560Z,67.73
2022-09-06T23:36:26.936Z,67.84
2022-09-06T23:38:56.185Z,67.74
2022-09-06T23:41:25.126Z,67.56
2022-09-06T23:43:53.383Z,67.50
2022-09-06T23:46:21.650Z,67.38
2022-09-06T23:48:49.955Z,67.26
2022-09-06T23:51:18.449Z,67.46
2022-09-06T23:53:47.018Z,67.51
2022-09-06T23:56:16.114Z,67.92
2022-09-06T23:58:44.182Z,67.95
